createdAt,value
2022-08-19T00:02:24.644Z,23.00
2022-08-19T00:04:58.183Z,22.91
2022-08-19T00:07:31.753Z,22.90
2022-08-19T00:10:06.054Z,22.93
2022-08-19T00:12:39.911Z,22.82
2022-08-19T00:15:17.808Z,22.73
2022-08-19T00:17:52.035Z,22.58
2022-08-19T00:20:27.052Z,22.51
2022-08-19T00:23:00.506Z,22.59
2022-08-19T00:25:34.567Z,22.58
2022-08-19T00:28:08.401Z,22.51
2022-08-19T00:30:42.592Z,22.36
2022-08-19T00:33:17.869Z,22.27
2022-08-19T00:35:55.910Z,22.21
2022-08-19T00:38:34.943Z,22.15
2022-08-19T00:41:03.248Z,22.16
2022-08-19T00:43:36.714Z,22.18
2022-08-19T00:46:10.716Z,22.16
2022-08-19T00:48:44.201Z,22.20
2022-08-19T00:51:17.545Z,22.14
2022-08-19T00:53:51.101Z,22.04
2022-08-19T00:56:25.355Z,21.99
2022-08-19T00:59:00.995Z,22.02
2022-08-19T01:01:34.522Z,22.08
2022-08-19T01:04:08.890Z,22.07
2022-08-19T01:06:43.661Z,22.03
2022-08-19T01:09:19.261Z,21.95
2022-08-19T01:11:53.590Z,21.96
2022-08-19T01:14:29.889Z,22.07
2022-08-19T01:17:04.238Z,22.07
2022-08-19T01:19:43.605Z,21.91
2022-08-19T01:22:26.466Z,21.77
2022-08-19T01:24:55.798Z,21.72
2022-08-19T01:27:35.281Z,21.64
2022-08-19T01:30:07.018Z,21.51
2022-08-19T01:32:40.694Z,21.41
2022-08-19T01:35:16.753Z,21.33
2022-08-19T01:37:52.985Z,21.29
2022-08-19T01:40:28.993Z,21.22
2022-08-19T01:43:03.240Z,21.20
2022-08-19T01:45:38.700Z,21.22
2022-08-19T01:48:12.268Z,21.13
2022-08-19T01:50:45.899Z,21.02
2022-08-19T01:53:21.098Z,20.99
2022-08-19T01:55:56.587Z,21.07
2022-08-19T01:58:33.290Z,21.23
2022-08-19T02:01:07.865Z,21.34
2022-08-19T02:03:41.795Z,21.36
2022-08-19T02:06:17.393Z,21.43
2022-08-19T02:08:51.623Z,21.46
2022-08-19T02:11:29.305Z,21.48
2022-08-19T02:14:03.670Z,21.45
2022-08-19T02:16:41.163Z,21.39
2022-08-19T02:19:14.872Z,21.30
2022-08-19T02:21:49.079Z,21.18
2022-08-19T02:24:22.319Z,21.08
2022-08-19T02:26:56.089Z,20.99
2022-08-19T02:29:29.747Z,20.92
2022-08-19T02:32:05.217Z,20.86
2022-08-19T02:34:38.628Z,20.83
2022-08-19T02:37:13.994Z,20.79
2022-08-19T02:39:47.502Z,20.67
2022-08-19T02:42:21.053Z,20.62
2022-08-19T02:44:56.646Z,20.59
2022-08-19T02:47:30.118Z,20.60
2022-08-19T02:50:05.322Z,20.72
2022-08-19T02:52:38.831Z,20.92
2022-08-19T02:55:12.790Z,21.07
2022-08-19T02:57:46.023Z,21.18
2022-08-19T03:00:20.193Z,21.25
2022-08-19T03:02:53.716Z,21.34
2022-08-19T03:05:45.956Z,21.40
2022-08-19T03:08:02.817Z,21.42
2022-08-19T03:10:38.328Z,21.39
2022-08-19T03:13:11.589Z,21.39
2022-08-19T03:15:46.765Z,21.48
2022-08-19T03:18:21.058Z,21.64
2022-08-19T03:20:57.263Z,21.75
2022-08-19T03:23:30.721Z,21.87
2022-08-19T03:26:16.337Z,21.84
2022-08-19T03:28:49.477Z,21.89
2022-08-19T03:31:43.319Z,22.00
2022-08-19T03:33:54.983Z,22.04
2022-08-19T03:36:29.722Z,21.99
2022-08-19T03:39:04.367Z,21.90
2022-08-19T03:41:45.594Z,21.88
2022-08-19T03:44:19.488Z,22.01
2022-08-19T03:46:56.372Z,22.19
2022-08-19T03:49:32.032Z,22.37
2022-08-19T03:52:08.678Z,22.41
2022-08-19T03:54:42.221Z,22.53
2022-08-19T03:57:15.564Z,22.64
2022-08-19T03:59:49.342Z,22.56
2022-08-19T04:02:22.897Z,22.42
2022-08-19T04:04:57.353Z,22.41
2022-08-19T04:07:31.143Z,22.40
2022-08-19T04:10:05.414Z,22.41
2022-08-19T04:12:38.734Z,22.39
2022-08-19T04:15:13.700Z,22.43
2022-08-19T04:17:47.508Z,22.50
2022-08-19T04:20:21.198Z,22.52
2022-08-19T04:22:54.954Z,22.58
2022-08-19T04:25:28.301Z,22.66
2022-08-19T04:28:01.840Z,22.76
2022-08-19T04:30:40.747Z,22.82
2022-08-19T04:33:16.747Z,22.91
2022-08-19T04:35:50.967Z,23.06
2022-08-19T04:38:25.416Z,23.36
2022-08-19T04:41:16.260Z,23.48
2022-08-19T04:43:51.979Z,23.57
2022-08-19T04:46:40.667Z,23.68
2022-08-19T04:49:01.477Z,23.71
2022-08-19T04:51:37.907Z,23.83
2022-08-19T04:54:11.338Z,23.89
2022-08-19T04:56:45.383Z,23.92
2022-08-19T04:59:19.856Z,23.93
2022-08-19T05:01:53.501Z,23.98
2022-08-19T05:04:27.063Z,24.06
2022-08-19T05:07:02.289Z,24.05
2022-08-19T05:09:58.545Z,24.02
2022-08-19T05:12:12.008Z,24.12
2022-08-19T05:14:46.249Z,24.24
2022-08-19T05:17:30.138Z,24.34
2022-08-19T05:20:16.307Z,24.44
2022-08-19T05:22:51.479Z,24.56
2022-08-19T05:25:26.795Z,24.70
2022-08-19T05:27:59.994Z,24.85
2022-08-19T05:30:46.821Z,24.94
2022-08-19T05:33:12.045Z,24.99
2022-08-19T05:35:45.511Z,25.14
2022-08-19T05:38:19.512Z,25.32
2022-08-19T05:40:53.276Z,25.56
2022-08-19T05:43:27.471Z,25.64
2022-08-19T05:46:00.865Z,25.75
2022-08-19T05:48:34.418Z,25.77
2022-08-19T05:51:10.207Z,25.81
2022-08-19T05:53:43.313Z,25.86
2022-08-19T05:56:18.798Z,25.90
2022-08-19T05:58:54.199Z,25.86
2022-08-19T06:01:29.004Z,25.93
2022-08-19T06:04:02.363Z,25.98
2022-08-19T06:06:41.380Z,26.03
2022-08-19T06:09:14.543Z,26.12
2022-08-19T06:11:56.058Z,26.25
2022-08-19T06:14:32.258Z,26.28
2022-08-19T06:17:07.681Z,26.21
2022-08-19T06:19:42.154Z,26.28
2022-08-19T06:22:15.735Z,26.42
2022-08-19T06:24:49.338Z,26.48
2022-08-19T06:27:23.423Z,26.61
2022-08-19T06:30:22.231Z,26.70
2022-08-19T06:32:55.686Z,26.72
2022-08-19T06:35:30.527Z,26.86
2022-08-19T06:38:04.472Z,26.93
2022-08-19T06:40:39.147Z,26.96
2022-08-19T06:43:12.736Z,27.16
2022-08-19T06:45:47.766Z,27.25
2022-08-19T06:48:21.677Z,27.49
2022-08-19T06:50:55.434Z,27.58
2022-08-19T06:53:29.133Z,27.72
2022-08-19T06:56:03.613Z,27.80
2022-08-19T06:58:37.021Z,28.02
2022-08-19T07:01:10.992Z,28.30
2022-08-19T07:03:44.611Z,28.81
2022-08-19T07:08:56.424Z,30.09
2022-08-19T07:11:31.940Z,30.52
2022-08-19T07:14:07.639Z,30.56
2022-08-19T07:16:43.154Z,30.47
2022-08-19T07:19:18.829Z,30.43
2022-08-19T07:21:54.377Z,30.26
2022-08-19T07:24:31.204Z,30.29
2022-08-19T07:27:15.073Z,30.47
2022-08-19T07:29:42.687Z,30.47
2022-08-19T07:32:16.160Z,30.26
2022-08-19T07:34:50.026Z,29.97
2022-08-19T07:37:24.204Z,29.44
2022-08-19T07:39:58.056Z,28.50
2022-08-19T07:42:31.989Z,27.68
2022-08-19T07:45:06.228Z,27.25
2022-08-19T07:47:58.845Z,27.18
2022-08-19T07:50:16.171Z,27.14
2022-08-19T07:52:50.860Z,27.20
2022-08-19T07:55:41.202Z,27.31
2022-08-19T07:58:02.725Z,27.45
2022-08-19T08:00:38.032Z,27.61
2022-08-19T08:03:11.857Z,27.70
2022-08-19T08:06:02.817Z,27.62
2022-08-19T08:08:53.549Z,27.58
2022-08-19T08:11:27.252Z,27.66
2022-08-19T08:14:04.620Z,28.04
2022-08-19T08:16:47.014Z,28.70
2022-08-19T08:19:20.580Z,29.56
2022-08-19T08:21:52.351Z,29.77
2022-08-19T08:24:28.751Z,29.61
2022-08-19T08:27:03.193Z,29.57
2022-08-19T08:29:38.837Z,29.93
2022-08-19T08:32:14.748Z,30.95
2022-08-19T08:34:47.490Z,31.69
2022-08-19T08:37:23.277Z,31.11
2022-08-19T08:39:56.961Z,30.61
2022-08-19T08:42:33.299Z,30.58
2022-08-19T08:45:11.498Z,30.59
2022-08-19T08:47:47.580Z,31.27
2022-08-19T08:50:26.490Z,32.59
2022-08-19T08:53:01.085Z,33.71
2022-08-19T08:55:36.948Z,34.28
2022-08-19T08:58:15.161Z,34.85
2022-08-19T09:00:51.138Z,35.04
2022-08-19T09:03:27.221Z,34.99
2022-08-19T09:06:11.942Z,35.44
2022-08-19T09:08:47.988Z,34.95
2022-08-19T09:11:42.644Z,34.38
2022-08-19T09:14:06.754Z,34.06
2022-08-19T09:16:41.737Z,33.72
2022-08-19T09:19:17.356Z,33.53
2022-08-19T09:21:52.720Z,33.48
2022-08-19T09:24:31.019Z,33.81
2022-08-19T09:27:18.240Z,34.76
2022-08-19T09:29:39.181Z,36.17
2022-08-19T09:32:26.344Z,37.52
2022-08-19T09:34:51.318Z,38.23
2022-08-19T09:37:25.672Z,38.89
2022-08-19T09:40:02.566Z,40.25
2022-08-19T09:42:36.677Z,40.96
2022-08-19T09:45:12.926Z,41.91
2022-08-19T09:47:47.321Z,42.67
2022-08-19T09:50:21.636Z,43.33
2022-08-19T09:52:59.818Z,42.81
2022-08-19T09:55:33.303Z,42.48
2022-08-19T09:58:07.609Z,41.41
2022-08-19T10:00:42.349Z,39.96
2022-08-19T10:03:16.152Z,38.75
2022-08-19T10:05:55.132Z,38.13
2022-08-19T10:08:30.846Z,38.15
2022-08-19T10:11:27.509Z,38.14
2022-08-19T10:13:44.566Z,38.18
2022-08-19T10:16:21.059Z,38.72
2022-08-19T10:18:59.023Z,39.04
2022-08-19T10:21:33.889Z,38.54
2022-08-19T10:24:09.656Z,38.78
2022-08-19T10:26:46.426Z,38.44
2022-08-19T10:29:32.282Z,38.43
2022-08-19T10:32:00.546Z,38.83
2022-08-19T10:34:33.396Z,38.22
2022-08-19T10:37:08.478Z,37.64
2022-08-19T10:39:43.723Z,36.46
2022-08-19T10:42:21.849Z,36.26
2022-08-19T10:44:55.537Z,37.13
2022-08-19T10:47:31.580Z,38.80
2022-08-19T10:50:22.671Z,39.89
2022-08-19T10:52:57.907Z,40.24
2022-08-19T10:55:48.850Z,40.73
2022-08-19T10:58:25.802Z,40.33
2022-08-19T11:01:01.020Z,40.17
2022-08-19T11:03:34.530Z,40.44
2022-08-19T11:06:12.792Z,40.18
2022-08-19T11:08:46.764Z,40.42
2022-08-19T11:11:20.321Z,40.22
2022-08-19T11:13:54.268Z,39.69
2022-08-19T11:16:30.629Z,39.20
2022-08-19T11:19:04.488Z,38.45
2022-08-19T11:21:40.592Z,37.89
2022-08-19T11:24:16.572Z,37.92
2022-08-19T11:26:51.882Z,38.55
2022-08-19T11:29:27.440Z,39.12
2022-08-19T11:32:02.876Z,39.43
2022-08-19T11:34:36.561Z,40.01
2022-08-19T11:37:10.196Z,41.04
2022-08-19T11:39:43.937Z,42.22
2022-08-19T11:42:37.270Z,43.24
2022-08-19T11:45:13.716Z,43.50
2022-08-19T11:47:46.492Z,43.46
2022-08-19T11:50:20.565Z,43.33
2022-08-19T11:52:55.586Z,42.41
2022-08-19T11:55:29.110Z,41.93
2022-08-19T11:58:02.687Z,40.60
2022-08-19T12:00:36.531Z,40.13
2022-08-19T12:03:10.566Z,40.24
2022-08-19T12:05:44.728Z,40.53
2022-08-19T12:08:18.148Z,40.95
2022-08-19T12:10:51.637Z,40.90
2022-08-19T12:13:25.285Z,40.64
2022-08-19T12:15:59.432Z,40.37
2022-08-19T12:18:33.105Z,40.36
2022-08-19T12:21:06.879Z,39.45
2022-08-19T12:23:40.261Z,37.85
2022-08-19T12:26:14.429Z,36.24
2022-08-19T12:28:49.158Z,36.12
2022-08-19T12:31:23.223Z,36.84
2022-08-19T12:33:56.870Z,37.26
2022-08-19T12:36:30.731Z,36.87
2022-08-19T12:39:05.410Z,35.56
2022-08-19T12:41:45.081Z,34.11
2022-08-19T12:44:15.759Z,33.36
2022-08-19T12:46:53.907Z,32.74
2022-08-19T12:49:52.499Z,32.79
2022-08-19T12:52:06.669Z,32.84
2022-08-19T12:54:40.316Z,33.18
2022-08-19T12:57:14.764Z,34.15
2022-08-19T12:59:48.515Z,34.77
2022-08-19T13:02:22.401Z,35.61
2022-08-19T13:04:55.796Z,35.99
2022-08-19T13:07:29.384Z,36.61
2022-08-19T13:10:05.468Z,37.06
2022-08-19T13:12:39.181Z,37.06
2022-08-19T13:15:15.071Z,37.16
2022-08-19T13:17:50.101Z,37.29
2022-08-19T13:20:24.657Z,37.65
2022-08-19T13:22:59.324Z,38.15
2022-08-19T13:25:32.861Z,38.71
2022-08-19T13:28:07.996Z,39.03
2022-08-19T13:30:59.103Z,38.57
2022-08-19T13:33:34.007Z,38.89
2022-08-19T13:36:08.957Z,39.01
2022-08-19T13:38:42.585Z,39.41
2022-08-19T13:45:25.299Z,39.58
2022-08-19T13:48:11.189Z,38.70
2022-08-19T13:51:11.023Z,38.07
2022-08-19T13:53:48.072Z,36.11
2022-08-19T14:21:59.628Z,35.07
2022-08-19T14:24:33.308Z,34.63
2022-08-19T14:27:07.579Z,34.26
2022-08-19T14:29:41.325Z,34.67
2022-08-19T14:32:16.831Z,35.02
2022-08-19T14:34:49.974Z,34.08
2022-08-19T14:37:23.893Z,32.42
2022-08-19T14:39:58.451Z,31.10
2022-08-19T14:42:32.300Z,31.14
2022-08-19T14:45:07.167Z,31.49
2022-08-19T14:47:40.918Z,31.68
2022-08-19T14:50:18.311Z,31.20
2022-08-19T14:52:51.883Z,30.61
2022-08-19T14:55:25.628Z,29.84
2022-08-19T14:57:59.210Z,29.77
2022-08-19T15:00:34.383Z,29.57
2022-08-19T15:03:09.626Z,29.87
2022-08-19T15:05:43.169Z,30.39
2022-08-19T15:08:16.873Z,30.54
2022-08-19T15:10:50.232Z,30.23
2022-08-19T15:13:26.124Z,30.39
2022-08-19T15:16:00.020Z,30.45
2022-08-19T15:18:36.555Z,30.44
2022-08-19T15:21:10.332Z,30.27
2022-08-19T15:23:46.259Z,29.72
2022-08-19T15:26:22.671Z,28.98
2022-08-19T15:28:57.107Z,28.25
2022-08-19T15:31:32.474Z,27.73
2022-08-19T15:34:07.522Z,27.36
2022-08-19T15:36:40.939Z,27.01
2022-08-19T15:39:14.417Z,26.86
2022-08-19T15:41:48.558Z,26.66
2022-08-19T15:44:26.716Z,26.67
2022-08-19T15:47:00.484Z,26.91
2022-08-19T15:49:34.354Z,27.14
2022-08-19T15:52:08.417Z,27.04
2022-08-19T15:54:42.096Z,26.81
2022-08-19T15:57:33.369Z,26.64
2022-08-19T16:00:26.934Z,26.63
2022-08-19T16:03:18.144Z,26.58
2022-08-19T16:06:09.446Z,26.38
2022-08-19T16:08:49.093Z,26.21
2022-08-19T16:11:21.522Z,26.12
2022-08-19T16:13:56.009Z,26.17
2022-08-19T16:16:34.157Z,25.98
2022-08-19T16:21:53.381Z,25.65
2022-08-19T16:24:28.783Z,25.68
2022-08-19T16:27:03.959Z,25.77
2022-08-19T16:29:39.517Z,25.86
2022-08-19T16:32:14.708Z,25.86
2022-08-19T16:34:49.415Z,25.79
2022-08-19T16:37:23.768Z,25.78
2022-08-19T16:39:57.853Z,25.79
2022-08-19T16:42:34.478Z,25.77
2022-08-19T16:45:10.378Z,25.72
2022-08-19T16:47:43.835Z,25.64
2022-08-19T16:50:22.120Z,25.53
2022-08-19T16:52:52.767Z,25.33
2022-08-19T16:55:28.507Z,25.26
2022-08-19T16:58:03.824Z,25.21
2022-08-19T17:00:37.640Z,25.16
2022-08-19T17:03:15.152Z,25.11
2022-08-19T17:05:48.569Z,25.05
2022-08-19T17:08:22.957Z,24.99
2022-08-19T17:11:17.053Z,24.97
2022-08-19T17:13:34.593Z,24.87
2022-08-19T17:16:09.035Z,24.69
2022-08-19T17:18:42.882Z,24.57
2022-08-19T17:21:16.463Z,24.48
2022-08-19T17:23:50.607Z,24.48
2022-08-19T17:26:25.445Z,24.46
2022-08-19T17:29:00.453Z,24.41
2022-08-19T17:31:35.204Z,24.27
2022-08-19T17:34:09.351Z,24.13
2022-08-19T17:36:42.911Z,24.12
2022-08-19T17:39:16.400Z,24.05
2022-08-19T17:41:50.060Z,23.97
2022-08-19T17:44:23.571Z,23.87
2022-08-19T17:46:56.830Z,23.74
2022-08-19T17:49:30.044Z,23.65
2022-08-19T17:52:09.980Z,23.62
2022-08-19T17:54:41.540Z,23.68
2022-08-19T17:57:15.786Z,23.72
2022-08-19T17:59:49.580Z,23.72
2022-08-19T18:02:23.330Z,23.69
2022-08-19T18:04:56.694Z,23.69
2022-08-19T18:07:32.494Z,23.68
2022-08-19T18:10:06.657Z,23.64
2022-08-19T18:12:40.633Z,23.56
2022-08-19T18:15:15.386Z,23.54
2022-08-19T18:17:49.242Z,23.48
2022-08-19T18:20:23.249Z,23.40
2022-08-19T18:22:59.489Z,23.32
2022-08-19T18:25:35.007Z,23.25
2022-08-19T18:28:08.570Z,23.22
2022-08-19T18:30:43.150Z,23.20
2022-08-19T18:33:18.785Z,23.17
2022-08-19T18:35:53.290Z,23.15
2022-08-19T18:38:44.728Z,23.06
2022-08-19T18:41:39.116Z,23.02
2022-08-19T18:44:30.439Z,22.96
2022-08-19T18:47:21.305Z,22.86
2022-08-19T18:49:54.993Z,22.84
2022-08-19T18:52:30.370Z,22.86
2022-08-19T18:55:06.044Z,22.75
2022-08-19T18:57:39.375Z,22.68
2022-08-19T19:00:18.552Z,22.63
2022-08-19T19:02:55.318Z,22.59
2022-08-19T19:05:30.918Z,22.51
2022-08-19T19:08:04.980Z,22.50
2022-08-19T19:10:39.196Z,22.50
2022-08-19T19:13:16.265Z,22.47
2022-08-19T19:15:51.746Z,22.49
2022-08-19T19:18:25.399Z,22.48
2022-08-19T19:20:59.751Z,22.46
2022-08-19T19:23:34.023Z,22.43
2022-08-19T19:26:09.362Z,22.43
2022-08-19T19:28:45.709Z,22.38
2022-08-19T19:31:22.877Z,22.35
2022-08-19T19:33:57.576Z,22.34
2022-08-19T19:36:31.056Z,22.34
2022-08-19T19:39:04.643Z,22.31
2022-08-19T19:41:38.136Z,22.26
2022-08-19T19:44:30.823Z,22.22
2022-08-19T19:46:48.286Z,22.21
2022-08-19T19:49:21.834Z,22.17
2022-08-19T19:51:55.201Z,22.10
2022-08-19T19:54:28.658Z,22.07
2022-08-19T19:57:02.343Z,22.02
2022-08-19T19:59:35.854Z,22.00
2022-08-19T20:02:11.994Z,21.96
2022-08-19T20:04:49.127Z,21.91
2022-08-19T20:07:27.359Z,21.85
2022-08-19T20:10:02.476Z,21.79
2022-08-19T20:12:39.405Z,21.75
2022-08-19T20:15:13.130Z,21.72
2022-08-19T20:17:47.881Z,21.68
2022-08-19T20:20:25.492Z,21.63
2022-08-19T20:22:59.662Z,21.57
2022-08-19T20:25:37.434Z,21.50
2022-08-19T20:28:12.491Z,21.50
2022-08-19T20:30:48.244Z,21.50
2022-08-19T20:33:21.676Z,21.49
2022-08-19T20:35:54.795Z,21.49
2022-08-19T20:38:32.940Z,21.45
2022-08-19T20:41:08.323Z,21.42
2022-08-19T20:43:44.222Z,21.37
2022-08-19T20:46:18.499Z,21.35
2022-08-19T20:48:51.874Z,21.29
2022-08-19T20:51:25.875Z,21.24
2022-08-19T20:54:00.255Z,21.22
2022-08-19T20:56:35.888Z,21.17
2022-08-19T20:59:10.704Z,21.12
2022-08-19T21:01:48.262Z,21.09
2022-08-19T21:04:23.407Z,21.07
2022-08-19T21:06:56.990Z,21.08
2022-08-19T21:09:32.975Z,21.04
2022-08-19T21:12:09.113Z,21.00
2022-08-19T21:14:46.010Z,20.95
2022-08-19T21:17:20.506Z,20.90
2022-08-19T21:19:56.449Z,20.84
2022-08-19T21:22:31.238Z,20.77
2022-08-19T21:25:09.614Z,20.72
2022-08-19T21:27:44.102Z,20.66
2022-08-19T21:30:18.218Z,20.60
2022-08-19T21:32:52.816Z,20.55
2022-08-19T21:35:26.774Z,20.50
2022-08-19T21:38:00.439Z,20.45
2022-08-19T21:40:34.974Z,20.40
2022-08-19T21:43:08.444Z,20.36
2022-08-19T21:45:42.134Z,20.32
2022-08-19T21:48:16.030Z,20.27
2022-08-19T21:50:51.079Z,20.25
2022-08-19T21:53:24.700Z,20.21
2022-08-19T21:56:00.129Z,20.19
2022-08-19T21:58:34.368Z,20.11
2022-08-19T22:01:08.659Z,20.04
2022-08-19T22:03:43.328Z,20.06
2022-08-19T22:06:17.808Z,20.11
2022-08-19T22:08:51.380Z,20.18
2022-08-19T22:11:25.172Z,20.13
2022-08-19T22:13:58.659Z,20.12
2022-08-19T22:16:32.663Z,20.10
2022-08-19T22:19:06.866Z,19.97
2022-08-19T22:21:41.203Z,19.84
2022-08-19T22:24:15.024Z,19.80
2022-08-19T22:26:48.674Z,19.73
2022-08-19T22:29:25.065Z,19.62
2022-08-19T22:31:58.297Z,19.56
2022-08-19T22:34:32.397Z,19.49
2022-08-19T22:37:06.688Z,19.46
2022-08-19T22:39:40.112Z,19.48
2022-08-19T22:42:14.094Z,19.46
2022-08-19T22:44:47.621Z,19.43
2022-08-19T22:47:21.158Z,19.37
2022-08-19T22:49:54.865Z,19.36
2022-08-19T22:52:28.656Z,19.34
2022-08-19T22:55:07.064Z,19.31
2022-08-19T22:57:41.383Z,19.28
2022-08-19T23:00:17.505Z,19.38
2022-08-19T23:02:52.603Z,19.41
2022-08-19T23:05:28.841Z,19.41
2022-08-19T23:08:03.141Z,19.45
2022-08-19T23:10:36.823Z,19.38
2022-08-19T23:13:10.927Z,19.37
2022-08-19T23:15:45.105Z,19.38
2022-08-19T23:18:20.184Z,19.37
2022-08-19T23:20:54.760Z,19.38
2022-08-19T23:23:29.144Z,19.36
2022-08-19T23:26:02.806Z,19.37
2022-08-19T23:29:01.057Z,19.38
2022-08-19T23:31:36.495Z,19.29
2022-08-19T23:34:10.026Z,19.11
2022-08-19T23:36:43.676Z,18.96
2022-08-19T23:39:20.363Z,18.83
2022-08-19T23:41:55.938Z,18.78
2022-08-19T23:44:31.003Z,18.76
2022-08-19T23:47:06.287Z,18.72
2022-08-19T23:49:42.586Z,18.73
2022-08-19T23:52:16.053Z,18.76
2022-08-19T23:54:49.593Z,18.78
2022-08-19T23:57:23.183Z,18.82
2022-08-19T23:59:57.010Z,18.88
